Time;durP1;ratioP1;P1;durP2;ratioP2;P2;SDS_P1;SDS_P2;PMS_P1;PMS_P2;Temp;Humidity;BMP_temperature;BMP_pressure;BME280_temperature;BME280_humidity;BME280_pressure;Samples;Min_cycle;Max_cycle;Signal;HPM_P1;HPM_P2
2022/05/12 00:01:36;;;;;;;2.95;0.80;;;11.80;99.90;;;;;;4977312;28;20513;-69
2022/05/12 00:04:02;;;;;;;6.93;1.30;;;11.80;99.90;;;;;;4991527;28;20054;-69
2022/05/12 00:06:28;;;;;;;1.92;0.70;;;11.80;99.90;;;;;;4979658;28;20053;-69
2022/05/12 00:08:55;;;;;;;2.55;0.90;;;11.80;99.90;;;;;;4968876;28;20449;-69
2022/05/12 00:11:21;;;;;;;3.10;1.00;;;11.80;99.90;;;;;;4991473;28;20714;-70
2022/05/12 00:13:47;;;;;;;3.22;1.10;;;11.80;99.90;;;;;;4991936;28;20137;-70
2022/05/12 00:16:13;;;;;;;4.72;1.20;;;11.70;99.90;;;;;;4993680;28;20465;-69
2022/05/12 00:18:40;;;;;;;5.82;1.50;;;11.80;99.90;;;;;;4977108;28;20050;-68
2022/05/12 00:21:06;;;;;;;3.25;1.40;;;11.80;99.90;;;;;;4976996;28;20049;-71
2022/05/12 00:23:32;;;;;;;6.10;1.63;;;11.70;99.90;;;;;;4973272;28;20718;-69
2022/05/12 00:25:58;;;;;;;4.22;2.13;;;11.70;99.90;;;;;;4980822;28;20064;-70
2022/05/12 00:28:26;;;;;;;6.22;1.90;;;11.70;99.90;;;;;;4988874;28;20054;-68
2022/05/12 00:30:55;;;;;;;5.65;1.52;;;11.70;99.90;;;;;;4974230;28;20056;-71
2022/05/12 00:33:25;;;;;;;3.67;1.92;;;11.60;99.90;;;;;;4977811;28;20051;-70
2022/05/12 00:35:51;;;;;;;4.93;2.10;;;11.60;99.90;;;;;;4997083;28;20049;-69
2022/05/12 00:38:17;;;;;;;5.60;1.60;;;11.70;99.90;;;;;;4972827;28;20480;-69
2022/05/12 00:40:47;;;;;;;5.18;1.55;;;11.60;99.90;;;;;;4958086;28;20069;-69
2022/05/12 00:43:40;;;;;;;5.32;1.42;;;11.60;99.90;;;;;;4990878;28;20045;-70
2022/05/12 00:46:15;;;;;;;5.55;1.40;;;11.50;99.90;;;;;;4996705;28;20391;-69
2022/05/12 00:48:43;;;;;;;6.75;1.75;;;11.50;99.90;;;;;;4996269;28;20050;-69
2022/05/12 00:51:12;;;;;;;6.63;1.50;;;11.40;99.90;;;;;;4995699;28;20038;-70
2022/05/12 00:53:39;;;;;;;4.70;1.55;;;11.40;99.90;;;;;;4995298;28;20052;-70
2022/05/12 00:56:09;;;;;;;4.57;1.50;;;11.30;99.90;;;;;;4996645;28;20100;-70
2022/05/12 00:58:36;;;;;;;3.70;1.60;;;11.30;99.90;;;;;;4979266;28;20530;-69
2022/05/12 01:01:05;;;;;;;2.67;1.45;;;11.20;99.90;;;;;;4979161;28;20491;-69
2022/05/12 01:03:32;;;;;;;4.35;1.70;;;11.20;99.90;;;;;;4993491;28;20053;-69
2022/05/12 01:06:01;;;;;;;4.75;1.60;;;11.10;99.90;;;;;;5011991;28;20049;-69
2022/05/12 01:08:27;;;;;;;5.38;1.45;;;11.10;99.90;;;;;;5009018;28;20054;-69
2022/05/12 01:10:59;;;;;;;3.08;1.25;;;11.10;99.90;;;;;;5013068;28;20565;-70
2022/05/12 01:13:25;;;;;;;3.55;1.58;;;11.00;99.90;;;;;;4978636;28;20121;-69
2022/05/12 01:15:54;;;;;;;6.82;1.65;;;11.00;99.90;;;;;;4996133;28;20487;-69
2022/05/12 01:18:21;;;;;;;5.78;1.30;;;10.90;99.90;;;;;;5005835;28;20089;-69
2022/05/12 01:20:48;;;;;;;2.97;1.13;;;11.10;99.90;;;;;;4990097;28;20112;-70
2022/05/12 01:23:33;;;;;;;6.82;1.17;;;10.90;99.90;;;;;;4992557;28;20034;-68
2022/05/12 01:26:06;;;;;;;3.45;1.00;;;10.80;99.90;;;;;;4996494;28;20056;-69
2022/05/12 01:28:32;;;;;;;4.28;1.05;;;10.80;99.90;;;;;;4991504;28;20054;-69
2022/05/12 01:30:59;;;;;;;1.63;0.68;;;10.80;99.90;;;;;;4996010;28;20490;-71
2022/05/12 01:33:26;;;;;;;4.70;1.00;;;10.80;99.90;;;;;;4975217;28;20150;-69
2022/05/12 01:35:52;;;;;;;5.30;1.05;;;10.80;99.90;;;;;;4976796;28;20514;-70
2022/05/12 01:38:18;;;;;;;2.38;1.00;;;10.70;99.90;;;;;;4972539;28;20049;-69
2022/05/12 01:40:44;;;;;;;5.25;1.40;;;10.70;99.90;;;;;;4974940;28;20085;-69
2022/05/12 01:43:15;;;;;;;4.15;1.10;;;10.60;99.90;;;;;;4978499;28;20052;-69
2022/05/12 01:45:41;;;;;;;2.60;1.13;;;10.60;99.90;;;;;;4980545;28;20405;-69
2022/05/12 01:48:10;;;;;;;3.13;1.20;;;10.50;99.90;;;;;;4996493;28;20139;-69
2022/05/12 01:50:38;;;;;;;2.30;1.10;;;10.50;99.90;;;;;;4996545;28;20124;-69
2022/05/12 01:53:04;;;;;;;3.63;1.10;;;10.50;99.90;;;;;;4995666;28;20046;-69
2022/05/12 01:55:31;;;;;;;6.55;1.55;;;10.40;99.90;;;;;;4948876;28;20050;-69
2022/05/12 01:58:00;;;;;;;2.33;1.13;;;10.40;99.90;;;;;;4969503;28;20046;-69
2022/05/12 02:00:28;;;;;;;3.00;0.90;;;10.30;99.90;;;;;;4988616;28;20042;-69
2022/05/12 02:02:57;;;;;;;3.53;1.42;;;10.30;99.90;;;;;;4984930;28;20061;-70
2022/05/12 02:05:23;;;;;;;4.78;1.35;;;10.30;99.90;;;;;;4981115;28;20060;-70
2022/05/12 02:07:49;;;;;;;5.40;1.20;;;10.30;99.90;;;;;;4986725;28;20034;-69
2022/05/12 02:10:22;;;;;;;1.52;0.95;;;10.20;99.90;;;;;;4988431;28;20061;-68
2022/05/12 02:12:48;;;;;;;3.45;1.00;;;10.20;99.90;;;;;;4988639;28;20049;-70
2022/05/12 02:15:14;;;;;;;2.05;1.05;;;10.10;99.90;;;;;;4995623;28;20482;-69
2022/05/12 02:17:40;;;;;;;4.70;1.10;;;10.00;99.90;;;;;;4979886;28;20494;-69
2022/05/12 02:20:07;;;;;;;3.20;0.93;;;10.00;99.90;;;;;;4989955;28;20046;-69
2022/05/12 02:22:33;;;;;;;3.65;1.20;;;10.00;99.90;;;;;;5002757;28;20406;-70
2022/05/12 02:24:59;;;;;;;3.95;1.05;;;10.00;99.90;;;;;;4987633;28;20125;-69
2022/05/12 02:27:25;;;;;;;3.50;1.20;;;9.90;99.90;;;;;;4975813;28;20054;-70
2022/05/12 02:29:51;;;;;;;3.13;1.27;;;9.90;99.90;;;;;;4982711;28;20050;-69
2022/05/12 02:32:17;;;;;;;2.10;1.35;;;9.90;99.90;;;;;;4987962;28;20393;-72
2022/05/12 02:34:43;;;;;;;4.00;1.42;;;9.90;99.90;;;;;;4988320;28;20046;-69
2022/05/12 02:37:09;;;;;;;2.47;1.50;;;9.90;99.90;;;;;;4962699;28;20081;-70
2022/05/12 02:39:37;;;;;;;3.38;1.75;;;9.90;99.90;;;;;;4978293;28;20101;-69
2022/05/12 02:42:06;;;;;;;4.78;1.98;;;9.90;99.90;;;;;;4994310;28;20054;-69
2022/05/12 02:44:32;;;;;;;6.10;1.85;;;9.90;99.90;;;;;;4992755;28;20046;-69
2022/05/12 02:46:58;;;;;;;3.75;2.00;;;9.90;99.90;;;;;;4995127;28;20045;-70
2022/05/12 02:49:24;;;;;;;6.50;1.90;;;9.80;99.90;;;;;;4995592;28;20049;-68
2022/05/12 02:51:50;;;;;;;4.80;1.95;;;9.80;99.90;;;;;;4978480;28;20038;-69
2022/05/12 02:54:18;;;;;;;7.65;2.20;;;9.80;99.90;;;;;;4976644;28;20053;-70
2022/05/12 02:56:44;;;;;;;3.95;1.92;;;9.80;99.90;;;;;;4975765;28;20053;-70
2022/05/12 02:59:11;;;;;;;6.35;2.13;;;9.70;99.90;;;;;;5007454;28;20045;-68
2022/05/12 03:01:38;;;;;;;3.75;1.90;;;9.70;99.90;;;;;;4995180;28;20152;-69
2022/05/12 03:04:04;;;;;;;4.60;1.92;;;9.70;99.90;;;;;;4995578;28;20515;-70
2022/05/12 03:06:31;;;;;;;5.32;2.28;;;9.60;99.90;;;;;;4992586;28;20410;-70
2022/05/12 03:08:58;;;;;;;7.53;2.03;;;9.60;99.90;;;;;;4975653;28;20065;-70
2022/05/12 03:11:25;;;;;;;4.22;2.10;;;9.60;99.90;;;;;;4975569;28;20050;-70
2022/05/12 03:13:51;;;;;;;7.45;2.25;;;9.60;99.90;;;;;;4986742;28;20052;-70
2022/05/12 03:16:18;;;;;;;3.45;1.98;;;9.50;99.90;;;;;;4985349;28;20057;-72
2022/05/12 03:18:46;;;;;;;5.53;2.10;;;9.60;99.90;;;;;;4994574;28;20072;-70
2022/05/12 03:21:16;;;;;;;8.35;2.65;;;9.50;99.90;;;;;;4952455;28;20057;-69
2022/05/12 03:23:42;;;;;;;8.45;3.30;;;9.50;99.90;;;;;;4987654;28;20516;-69
2022/05/12 03:26:09;;;;;;;8.93;2.30;;;9.40;99.90;;;;;;4988017;28;20410;-69
2022/05/12 03:28:36;;;;;;;6.95;2.45;;;9.50;99.90;;;;;;5009197;28;20041;-69
2022/05/12 03:31:02;;;;;;;10.18;2.80;;;9.40;99.90;;;;;;4978682;28;20568;-69
2022/05/12 03:33:28;;;;;;;7.38;2.67;;;9.40;99.90;;;;;;4989681;28;20050;-69
2022/05/12 03:35:54;;;;;;;5.85;2.80;;;9.50;99.90;;;;;;5007963;28;20616;-70
2022/05/12 03:38:20;;;;;;;10.25;3.00;;;9.50;99.90;;;;;;5004848;28;20537;-69
2022/05/12 03:40:48;;;;;;;8.10;3.22;;;9.50;99.90;;;;;;4987910;28;20062;-70
2022/05/12 03:44:46;;;;;;;10.57;3.20;;;9.50;99.90;;;;;;5004988;28;20499;-70
2022/05/12 03:46:00;;;;;;;11.05;3.28;;;9.40;99.90;;;;;;4992816;28;20080;-69
2022/05/12 03:48:26;;;;;;;10.57;3.25;;;9.40;99.90;;;;;;4985564;28;20486;-70
2022/05/12 03:50:52;;;;;;;9.80;3.45;;;9.50;99.90;;;;;;4992929;28;20189;-69
2022/05/12 03:53:19;;;;;;;13.13;3.30;;;9.50;99.90;;;;;;4978697;28;20056;-71
2022/05/12 03:55:45;;;;;;;8.98;3.38;;;9.50;99.90;;;;;;4994719;28;20129;-69
2022/05/12 03:58:11;;;;;;;13.10;3.63;;;9.50;99.90;;;;;;4993619;28;20046;-70
2022/05/12 04:00:38;;;;;;;8.20;3.50;;;9.50;99.90;;;;;;4951037;28;20058;-69
2022/05/12 04:03:04;;;;;;;7.10;3.60;;;9.40;99.90;;;;;;4974990;28;20047;-69
2022/05/12 04:05:31;;;;;;;10.38;3.17;;;9.40;99.90;;;;;;4982640;28;20054;-69
2022/05/12 04:07:58;;;;;;;11.05;3.53;;;9.30;99.90;;;;;;4960535;28;20490;-71
2022/05/12 04:10:26;;;;;;;10.02;3.67;;;9.30;99.90;;;;;;4991879;28;20042;-69
2022/05/12 04:12:52;;;;;;;7.40;3.65;;;9.30;99.90;;;;;;4992717;28;20128;-70
2022/05/12 04:15:22;;;;;;;10.20;3.60;;;9.30;99.90;;;;;;4984169;28;20095;-70
2022/05/12 04:18:00;;;;;;;5.30;3.58;;;9.40;99.90;;;;;;5004614;28;20045;-69
2022/05/12 04:20:29;;;;;;;9.02;3.28;;;9.40;99.90;;;;;;4990166;28;20054;-69
2022/05/12 04:22:56;;;;;;;7.30;3.55;;;9.50;99.90;;;;;;4986974;28;20046;-70
2022/05/12 04:25:22;;;;;;;9.70;4.40;;;9.60;99.90;;;;;;4985216;28;20057;-69
2022/05/12 04:27:49;;;;;;;8.38;3.95;;;9.60;99.90;;;;;;4977297;28;20073;-69
2022/05/12 04:30:17;;;;;;;12.52;4.40;;;9.70;99.90;;;;;;4984095;28;20054;-69
2022/05/12 04:32:43;;;;;;;10.73;4.53;;;9.70;99.90;;;;;;4990706;28;20379;-70
2022/05/12 04:35:12;;;;;;;9.07;4.40;;;9.70;99.90;;;;;;4984255;28;20053;-69
2022/05/12 04:37:50;;;;;;;9.48;4.07;;;9.70;99.90;;;;;;4986300;28;20046;-69
2022/05/12 04:40:29;;;;;;;12.52;4.45;;;9.70;99.90;;;;;;5004123;28;20112;-70
2022/05/12 04:42:57;;;;;;;8.52;4.15;;;9.70;99.90;;;;;;5003197;28;20494;-69
2022/05/12 04:45:26;;;;;;;11.10;4.55;;;9.60;99.90;;;;;;4989668;28;20054;-69
2022/05/12 04:47:53;;;;;;;9.50;4.43;;;9.70;99.90;;;;;;4970261;28;20487;-72
2022/05/12 04:50:24;;;;;;;10.98;4.20;;;9.80;99.90;;;;;;4987205;28;20129;-71
2022/05/12 04:52:50;;;;;;;11.32;4.03;;;9.80;99.90;;;;;;4974660;28;20506;-70
2022/05/12 04:55:17;;;;;;;11.38;4.53;;;9.90;99.90;;;;;;4978839;28;20076;-70
2022/05/12 04:57:48;;;;;;;14.07;4.43;;;9.90;99.90;;;;;;4968179;28;20539;-70
2022/05/12 05:00:19;;;;;;;11.25;4.30;;;10.00;99.90;;;;;;4976294;28;20076;-70
2022/05/12 05:02:45;;;;;;;9.07;3.93;;;10.10;99.90;;;;;;4982755;28;20054;-70
2022/05/12 05:05:12;;;;;;;11.10;5.30;;;10.10;99.90;;;;;;4986865;28;20042;-69
2022/05/12 05:07:39;;;;;;;11.60;4.53;;;10.20;99.90;;;;;;4982141;28;20046;-70
2022/05/12 05:10:06;;;;;;;9.85;4.85;;;10.30;99.90;;;;;;4991866;28;20045;-70
2022/05/12 05:12:32;;;;;;;12.35;5.10;;;10.30;99.90;;;;;;4993303;28;20100;-70
2022/05/12 05:14:59;;;;;;;8.88;4.38;;;10.40;99.90;;;;;;4988676;28;20455;-71
2022/05/12 05:17:25;;;;;;;16.17;5.40;;;10.50;99.90;;;;;;4982262;28;20486;-70
2022/05/12 05:19:51;;;;;;;11.15;5.38;;;10.50;99.90;;;;;;4974329;28;20391;-71
2022/05/12 05:22:17;;;;;;;8.40;4.35;;;10.70;99.90;;;;;;4981998;28;20284;-72
2022/05/12 05:24:43;;;;;;;12.95;4.97;;;10.80;99.90;;;;;;4974561;28;20050;-70
2022/05/12 05:27:09;;;;;;;14.27;4.68;;;10.90;99.90;;;;;;4980572;28;20057;-70
2022/05/12 05:29:40;;;;;;;9.23;4.38;;;11.00;99.90;;;;;;4987824;28;20050;-70
2022/05/12 05:32:09;;;;;;;11.85;5.38;;;11.10;99.90;;;;;;4968548;28;20064;-70
2022/05/12 05:34:35;;;;;;;11.57;4.95;;;11.20;99.90;;;;;;4990204;28;20054;-70
2022/05/12 05:37:01;;;;;;;11.10;5.25;;;11.30;99.90;;;;;;4978180;28;20050;-70
2022/05/12 05:39:27;;;;;;;12.25;5.20;;;11.40;99.90;;;;;;4991715;28;20054;-71
2022/05/12 05:41:59;;;;;;;14.88;5.00;;;11.50;99.90;;;;;;4980004;28;20453;-70
2022/05/12 05:44:28;;;;;;;10.10;4.93;;;11.60;99.90;;;;;;4993745;28;20049;-70
2022/05/12 05:46:54;;;;;;;11.60;5.25;;;11.70;99.90;;;;;;4995850;28;20402;-69
2022/05/12 05:49:20;;;;;;;11.85;5.13;;;11.80;99.90;;;;;;4989587;28;20051;-69
2022/05/12 05:54:31;;;;;;;12.18;5.30;;;12.00;99.90;;;;;;4986911;28;20073;-70
2022/05/12 05:56:58;;;;;;;8.80;4.55;;;12.20;99.90;;;;;;4960861;28;20050;-70
2022/05/12 05:59:24;;;;;;;11.38;4.65;;;12.30;99.90;;;;;;4976147;28;20046;-70
2022/05/12 06:01:50;;;;;;;9.35;4.13;;;12.40;99.90;;;;;;4995452;28;20080;-70
2022/05/12 06:04:17;;;;;;;12.55;4.30;;;12.40;99.90;;;;;;4996396;28;20073;-70
2022/05/12 06:06:44;;;;;;;10.60;4.80;;;12.50;99.90;;;;;;4960526;28;20506;-69
2022/05/12 06:09:14;;;;;;;12.75;4.80;;;12.60;99.90;;;;;;4986573;28;20549;-69
2022/05/12 06:11:44;;;;;;;9.25;4.30;;;12.80;99.90;;;;;;4977077;28;20046;-70
2022/05/12 06:14:10;;;;;;;9.65;4.28;;;12.80;99.90;;;;;;4989945;28;20132;-69
2022/05/12 06:16:37;;;;;;;10.02;4.00;;;13.00;99.90;;;;;;4973948;28;20577;-70
2022/05/12 06:19:04;;;;;;;11.30;4.07;;;13.10;99.90;;;;;;4981453;28;20050;-72
2022/05/12 06:21:30;;;;;;;9.15;3.80;;;13.20;99.90;;;;;;4980419;28;20050;-71
2022/05/12 06:23:56;;;;;;;13.13;4.55;;;13.30;99.90;;;;;;4984982;28;20558;-69
2022/05/12 06:26:23;;;;;;;10.80;4.05;;;13.40;99.90;;;;;;4992790;28;20061;-73
2022/05/12 06:28:49;;;;;;;11.35;3.85;;;13.50;99.90;;;;;;4991754;28;20401;-71
2022/05/12 06:31:24;;;;;;;8.70;3.75;;;13.50;99.90;;;;;;4996050;28;20049;-70
2022/05/12 06:33:54;;;;;;;10.63;3.60;;;13.60;99.90;;;;;;4994451;28;20061;-70
2022/05/12 06:36:20;;;;;;;8.77;3.92;;;13.70;99.90;;;;;;4976799;28;20492;-70
2022/05/12 06:38:47;;;;;;;10.00;4.40;;;13.70;99.90;;;;;;4990453;28;20068;-70
2022/05/12 06:41:14;;;;;;;8.02;3.85;;;13.90;99.90;;;;;;4960589;28;20062;-69
2022/05/12 06:43:45;;;;;;;8.95;4.13;;;14.00;99.90;;;;;;4989596;28;20053;-69
2022/05/12 06:46:17;;;;;;;10.77;4.78;;;13.90;99.90;;;;;;4983774;28;20058;-69
2022/05/12 06:48:47;;;;;;;10.27;3.93;;;13.90;99.90;;;;;;4993027;28;20498;-70
2022/05/12 06:51:14;;;;;;;8.63;4.10;;;14.10;99.90;;;;;;4986836;28;20575;-71
2022/05/12 06:53:41;;;;;;;12.20;4.10;;;14.10;99.90;;;;;;4978077;28;20052;-68
2022/05/12 06:56:07;;;;;;;8.38;4.18;;;14.20;99.90;;;;;;4989339;28;20522;-71
2022/05/12 06:58:37;;;;;;;13.20;3.65;;;14.20;99.90;;;;;;5011568;28;20064;-71
2022/05/12 07:01:04;;;;;;;7.30;4.00;;;14.30;99.90;;;;;;4994638;28;20049;-70
2022/05/12 07:03:30;;;;;;;7.03;3.88;;;14.10;99.90;;;;;;4995690;28;20387;-70
2022/05/12 07:05:57;;;;;;;6.40;3.30;;;14.30;99.90;;;;;;4995150;28;20060;-70
2022/05/12 07:08:25;;;;;;;7.68;3.70;;;14.50;99.90;;;;;;4978413;28;20073;-70
2022/05/12 07:10:51;;;;;;;9.95;3.00;;;14.50;99.90;;;;;;4959104;28;20046;-70
2022/05/12 07:13:20;;;;;;;8.95;3.30;;;14.60;99.90;;;;;;4992374;28;20049;-71
2022/05/12 07:15:51;;;;;;;8.35;3.13;;;14.60;99.90;;;;;;4979414;28;20077;-70
2022/05/12 07:18:18;;;;;;;7.43;3.47;;;14.70;99.90;;;;;;4994937;28;20045;-71
2022/05/12 07:26:36;;;;;;;7.75;3.58;;;14.90;99.90;;;;;;5011218;28;20064;-71
2022/05/12 07:29:09;;;;;;;7.50;3.90;;;14.90;99.90;;;;;;5006162;28;20041;-70
2022/05/12 07:31:36;;;;;;;6.47;3.50;;;14.80;99.90;;;;;;4990962;28;20422;-71
2022/05/12 07:34:02;;;;;;;7.03;3.00;;;14.90;99.90;;;;;;4988787;28;20057;-70
2022/05/12 07:36:32;;;;;;;10.55;3.75;;;14.90;99.90;;;;;;4976790;28;20562;-71
2022/05/12 07:39:00;;;;;;;8.27;3.10;;;15.10;99.90;;;;;;4976309;28;20478;-71
2022/05/12 07:41:27;;;;;;;8.30;2.60;;;15.10;99.90;;;;;;4975193;28;20115;-71
2022/05/12 07:43:54;;;;;;;5.00;2.78;;;15.20;99.90;;;;;;4993611;28;20055;-72
2022/05/12 07:46:27;;;;;;;8.68;2.72;;;15.40;99.90;;;;;;4988932;28;20076;-71
2022/05/12 07:48:53;;;;;;;8.68;2.60;;;15.50;99.90;;;;;;4993090;28;20050;-72
2022/05/12 07:51:20;;;;;;;6.95;2.20;;;15.60;99.90;;;;;;5012232;28;20048;-70
2022/05/12 07:53:47;;;;;;;5.93;2.40;;;15.70;99.90;;;;;;4992057;28;20049;-71
2022/05/12 07:56:20;;;;;;;8.32;2.30;;;15.70;99.90;;;;;;4988282;28;20577;-72
2022/05/12 07:58:46;;;;;;;7.70;2.30;;;15.80;99.90;;;;;;4988122;28;20053;-71
2022/05/12 08:01:14;;;;;;;5.22;2.20;;;15.90;99.90;;;;;;4992525;28;20106;-71
2022/05/12 08:03:40;;;;;;;5.95;1.70;;;16.00;99.90;;;;;;4976854;28;20055;-71
2022/05/12 08:06:07;;;;;;;2.92;1.75;;;16.10;99.90;;;;;;4992216;28;20057;-70
2022/05/12 08:08:35;;;;;;;5.85;2.40;;;16.30;99.90;;;;;;4993438;28;20053;-71
2022/05/12 08:11:03;;;;;;;5.95;1.70;;;16.50;99.90;;;;;;4913369;28;20049;-71
2022/05/12 08:13:29;;;;;;;6.18;2.30;;;16.70;99.90;;;;;;4975074;28;20057;-71
2022/05/12 08:15:56;;;;;;;8.57;2.28;;;16.70;99.90;;;;;;4989994;28;20042;-70
2022/05/12 08:18:24;;;;;;;6.30;2.25;;;16.60;99.90;;;;;;5007588;28;20056;-71
2022/05/12 08:20:51;;;;;;;4.75;1.90;;;16.50;99.90;;;;;;5005769;28;20049;-70
2022/05/12 08:23:18;;;;;;;3.80;2.10;;;16.60;99.90;;;;;;4990292;28;20046;-73
2022/05/12 08:25:45;;;;;;;5.68;1.85;;;16.60;99.90;;;;;;4990712;28;20074;-70
2022/05/12 08:28:17;;;;;;;7.00;1.80;;;16.90;99.90;;;;;;4991516;28;20053;-75
2022/05/12 08:30:47;;;;;;;3.13;1.70;;;16.70;99.90;;;;;;4993650;28;20498;-71
2022/05/12 08:33:13;;;;;;;4.90;1.83;;;17.10;99.90;;;;;;5008130;28;20056;-71
2022/05/12 08:35:42;;;;;;;6.30;1.80;;;17.00;99.90;;;;;;4990615;28;20483;-71
2022/05/12 08:38:08;;;;;;;5.60;1.92;;;17.10;99.90;;;;;;4990342;28;20054;-72
2022/05/12 08:41:02;;;;;;;4.88;1.90;;;17.10;99.90;;;;;;5006066;28;20073;-69
2022/05/12 08:43:37;;;;;;;3.47;1.08;;;17.20;99.90;;;;;;4991310;28;20057;-70
2022/05/12 08:46:19;;;;;;;3.80;1.60;;;17.20;99.90;;;;;;4990794;28;20038;-70
2022/05/12 08:48:46;;;;;;;6.05;1.88;;;17.20;99.90;;;;;;4972334;28;20046;-70
2022/05/12 08:51:17;;;;;;;3.03;1.40;;;17.40;99.90;;;;;;4990904;28;20131;-71
2022/05/12 08:54:04;;;;;;;4.57;1.63;;;17.40;99.90;;;;;;4989619;28;20057;-70
2022/05/12 08:56:31;;;;;;;4.07;1.35;;;17.30;99.90;;;;;;4972947;28;20164;-69
2022/05/12 08:58:59;;;;;;;3.92;1.40;;;17.30;99.90;;;;;;4988595;28;20401;-70
2022/05/12 09:01:38;;;;;;;5.95;1.50;;;17.10;99.90;;;;;;4991050;28;20393;-70
2022/05/12 09:04:31;;;;;;;3.85;1.42;;;17.30;99.90;;;;;;4989879;28;20042;-68
2022/05/12 09:07:12;;;;;;;6.72;1.58;;;17.20;99.90;;;;;;4978084;28;20050;-70
2022/05/12 09:10:05;;;;;;;4.53;1.40;;;17.30;99.90;;;;;;4977441;28;20050;-70
2022/05/12 09:12:54;;;;;;;5.32;1.20;;;17.50;99.90;;;;;;4977178;28;20523;-70
2022/05/12 09:15:31;;;;;;;1.75;1.08;;;17.50;99.90;;;;;;4994908;28;20883;-70
2022/05/12 09:18:04;;;;;;;4.53;1.40;;;17.80;99.90;;;;;;4991959;28;20046;-69
2022/05/12 09:20:35;;;;;;;7.85;1.50;;;17.90;99.90;;;;;;4993638;28;20050;-70
2022/05/12 09:23:03;;;;;;;4.00;1.80;;;17.90;99.90;;;;;;4978588;28;20153;-71
2022/05/12 09:25:34;;;;;;;4.82;1.50;;;18.00;99.90;;;;;;4992625;28;20053;-70
2022/05/12 09:28:33;;;;;;;3.47;1.27;;;18.30;99.90;;;;;;4991075;28;20104;-72
2022/05/12 09:31:20;;;;;;;4.55;1.20;;;18.20;99.90;;;;;;4990332;28;20052;-70
2022/05/12 09:33:51;;;;;;;3.28;1.15;;;17.80;97.90;;;;;;4993819;28;20678;-69
2022/05/12 09:36:23;;;;;;;6.18;1.23;;;17.50;99.90;;;;;;4975748;28;20053;-71
2022/05/12 09:38:54;;;;;;;4.88;1.25;;;17.40;99.90;;;;;;4991906;28;20080;-70
2022/05/12 09:41:38;;;;;;;4.18;1.38;;;17.30;99.90;;;;;;4991555;28;20518;-69
2022/05/12 09:44:26;;;;;;;3.30;1.20;;;17.60;99.90;;;;;;4981778;28;20399;-71
2022/05/12 09:46:58;;;;;;;5.07;1.25;;;17.70;99.90;;;;;;4983570;28;20050;-70
2022/05/12 09:49:31;;;;;;;5.03;1.42;;;17.60;99.90;;;;;;4993478;28;20049;-70
2022/05/12 09:52:15;;;;;;;3.28;1.13;;;17.80;99.90;;;;;;4974216;28;20057;-71
2022/05/12 09:54:41;;;;;;;5.50;1.30;;;17.90;99.90;;;;;;4992083;28;20065;-69
2022/05/12 09:57:20;;;;;;;5.60;1.35;;;17.80;99.90;;;;;;4992067;28;20573;-70
2022/05/12 09:59:58;;;;;;;4.07;1.20;;;17.80;96.70;;;;;;4990995;28;20085;-71
2022/05/12 10:08:16;;;;;;;3.92;1.38;;;17.90;99.90;;;;;;5010579;28;20100;-69
2022/05/12 10:10:45;;;;;;;3.85;1.45;;;18.00;99.90;;;;;;4990084;28;20048;-70
2022/05/12 10:13:23;;;;;;;5.00;1.55;;;18.00;99.90;;;;;;4988406;28;20391;-71
2022/05/12 10:15:53;;;;;;;5.55;1.70;;;17.70;99.90;;;;;;4992281;28;20402;-70
2022/05/12 10:18:38;;;;;;;4.35;1.70;;;17.60;99.90;;;;;;4992301;28;20056;-70
2022/05/12 10:21:39;;;;;;;5.70;1.40;;;17.40;99.90;;;;;;4994451;28;20050;-69
2022/05/12 10:24:34;;;;;;;4.72;1.55;;;17.30;99.90;;;;;;4994592;28;20396;-69
2022/05/12 10:27:09;;;;;;;4.28;1.52;;;17.30;99.90;;;;;;4949190;28;20126;-67
2022/05/12 10:29:50;;;;;;;5.30;1.45;;;17.60;99.90;;;;;;4988112;28;20049;-68
2022/05/12 10:32:28;;;;;;;;;;;17.90;91.90;;;;;;4992065;28;20077;-70
2022/05/12 10:35:16;;;;;;;4.50;1.50;;;18.20;92.00;;;;;;5007952;28;20012;-71
2022/05/12 10:38:15;;;;;;;4.50;1.20;;;18.10;95.50;;;;;;4992006;28;20535;-75
2022/05/12 10:40:55;;;;;;;3.60;1.20;;;17.90;87.20;;;;;;4966173;28;20053;-73
2022/05/12 10:43:39;;;;;;;6.00;1.50;;;18.20;90.90;;;;;;4992724;28;20096;-74
2022/05/12 10:46:11;;;;;;;4.72;1.55;;;18.50;79.40;;;;;;4990879;28;20053;-73
2022/05/12 10:49:03;;;;;;;4.53;1.30;;;18.30;90.90;;;;;;4992671;28;20091;-74
2022/05/12 10:52:14;;;;;;;4.28;1.10;;;18.10;73.70;;;;;;4974736;28;20162;-73
2022/05/12 10:55:01;;;;;;;3.90;1.35;;;17.90;78.30;;;;;;4994200;28;20045;-74
2022/05/12 10:57:33;;;;;;;2.55;1.10;;;18.40;78.20;;;;;;4991061;28;21927;-74
2022/05/12 11:00:37;;;;;;;3.28;1.00;;;18.70;77.70;;;;;;4995361;28;20057;-74
2022/05/12 11:03:21;;;;;;;4.22;1.10;;;19.00;63.40;;;;;;4992612;28;20050;-74
2022/05/12 11:05:55;;;;;;;3.20;1.30;;;19.20;65.20;;;;;;4978973;28;20053;-74
2022/05/12 11:08:36;;;;;;;3.80;1.08;;;19.10;66.20;;;;;;4990732;28;20705;-72
2022/05/12 11:11:08;;;;;;;3.63;1.00;;;18.90;63.90;;;;;;4990943;28;20053;-75
2022/05/12 11:13:57;;;;;;;3.58;1.33;;;18.90;67.00;;;;;;4990524;28;20049;-74
2022/05/12 11:16:26;;;;;;;3.40;1.30;;;18.70;67.10;;;;;;4965116;28;20056;-74
2022/05/12 11:19:12;;;;;;;2.90;0.85;;;19.10;64.80;;;;;;4990657;28;20502;-74
2022/05/12 11:21:47;;;;;;;1.95;1.00;;;19.10;64.00;;;;;;4990629;28;20058;-75
2022/05/12 11:24:19;;;;;;;4.93;1.45;;;19.30;62.70;;;;;;4989897;28;20049;-74
2022/05/12 11:27:18;;;;;;;5.15;1.02;;;19.60;61.80;;;;;;4999827;28;20393;-74
2022/05/12 11:30:13;;;;;;;6.70;1.17;;;19.80;60.10;;;;;;5007418;28;20050;-73
2022/05/12 11:33:02;;;;;;;5.18;1.23;;;20.00;59.10;;;;;;5005903;28;20408;-74
2022/05/12 11:35:37;;;;;;;6.80;1.30;;;20.10;58.40;;;;;;5008455;28;20157;-74
2022/05/12 11:38:10;;;;;;;2.67;1.05;;;20.10;59.00;;;;;;5008559;28;20037;-72
2022/05/12 11:40:44;;;;;;;2.45;0.82;;;19.90;56.90;;;;;;4958068;28;20058;-73
2022/05/12 11:46:42;;;;;;;2.03;0.80;;;19.40;58.50;;;;;;5003666;28;20137;-73
2022/05/12 11:49:48;;;;;;;5.13;1.00;;;19.60;57.50;;;;;;4991696;28;20137;-74
2022/05/12 11:52:47;;;;;;;4.80;1.23;;;19.40;56.20;;;;;;4990340;28;20045;-72
2022/05/12 11:55:24;;;;;;;3.83;1.00;;;19.20;57.60;;;;;;5006371;28;20080;-75
2022/05/12 11:58:08;;;;;;;3.70;0.80;;;19.60;58.70;;;;;;4989445;28;20048;-76
2022/05/12 12:00:34;;;;;;;3.13;0.70;;;19.80;57.40;;;;;;5009840;28;20051;-75
2022/05/12 12:03:20;;;;;;;4.18;1.00;;;20.20;58.10;;;;;;4994528;28;20053;-75
2022/05/12 12:05:49;;;;;;;4.45;1.10;;;20.30;57.00;;;;;;4977747;28;20065;-75
2022/05/12 12:08:30;;;;;;;2.80;1.05;;;20.00;57.70;;;;;;4981212;28;20131;-75
2022/05/12 12:11:30;;;;;;;;;;;19.50;57.10;;;;;;5002699;28;20049;-76
2022/05/12 12:13:59;;;;;;;2.65;0.77;;;19.50;58.30;;;;;;4942042;28;19928;-76
2022/05/12 12:17:09;;;;;;;4.57;1.02;;;20.00;59.20;;;;;;4987506;28;20049;-75
2022/05/12 12:19:46;;;;;;;4.35;1.30;;;20.30;56.60;;;;;;4992151;28;20053;-74
2022/05/12 12:22:35;;;;;;;2.55;1.00;;;19.80;58.10;;;;;;4990393;28;20038;-74
2022/05/12 12:25:30;;;;;;;2.78;0.90;;;19.30;58.00;;;;;;5008798;28;20049;-74
2022/05/12 12:28:08;;;;;;;2.30;0.90;;;19.20;59.60;;;;;;4990163;28;20084;-73
2022/05/12 12:30:53;;;;;;;2.42;1.15;;;19.90;59.00;;;;;;4973990;28;20550;-74
2022/05/12 12:33:38;;;;;;;3.38;0.93;;;19.90;55.20;;;;;;5006081;28;20041;-82
2022/05/12 12:36:15;;;;;;;3.42;1.00;;;19.80;57.90;;;;;;4988316;28;20037;-74
2022/05/12 12:38:47;;;;;;;2.63;0.80;;;19.40;56.30;;;;;;5010567;28;20077;-74
2022/05/12 12:41:19;;;;;;;4.05;1.33;;;19.80;56.80;;;;;;5007410;28;20129;-74
2022/05/12 12:43:55;;;;;;;3.15;0.88;;;20.30;56.40;;;;;;4993142;28;20390;-74
2022/05/12 12:46:35;;;;;;;1.90;0.98;;;20.70;56.90;;;;;;4994882;28;20068;-75
2022/05/12 12:49:33;;;;;;;6.05;1.38;;;20.00;55.60;;;;;;4997277;28;20046;-74
2022/05/12 12:52:06;;;;;;;2.30;1.17;;;20.00;55.60;;;;;;4975730;28;20088;-74
2022/05/12 12:57:29;;;;;;;3.70;1.15;;;20.20;58.10;;;;;;5008391;28;20046;-75
2022/05/12 12:59:57;;;;;;;4.35;1.20;;;20.50;58.00;;;;;;4992115;28;20375;-74
2022/05/12 13:02:32;;;;;;;2.58;0.85;;;20.60;56.20;;;;;;5010678;28;20046;-74
2022/05/12 13:05:05;;;;;;;3.03;1.17;;;20.20;55.80;;;;;;5008387;28;20525;-72
2022/05/12 13:07:34;;;;;;;3.85;1.00;;;19.90;56.00;;;;;;4986426;28;20302;-74
2022/05/12 13:10:23;;;;;;;3.80;1.10;;;19.80;56.70;;;;;;4983154;28;20410;-73
2022/05/12 13:12:53;;;;;;;3.40;1.10;;;20.50;54.80;;;;;;5014501;28;20085;-73
2022/05/12 13:15:23;;;;;;;3.33;1.10;;;21.20;55.10;;;;;;5008297;28;20050;-74
2022/05/12 13:17:51;;;;;;;3.75;1.40;;;21.50;55.00;;;;;;4969069;28;20057;-74
2022/05/12 13:20:25;;;;;;;3.85;1.30;;;21.90;53.60;;;;;;4987270;28;20433;-75
2022/05/12 13:23:00;;;;;;;3.15;1.20;;;21.50;52.70;;;;;;4979684;28;20080;-74
2022/05/12 13:25:30;;;;;;;4.90;1.48;;;21.00;53.20;;;;;;4958616;28;20096;-73
2022/05/12 13:27:57;;;;;;;3.30;1.27;;;20.40;54.30;;;;;;4977794;28;20129;-73
2022/05/12 13:30:37;;;;;;;2.78;1.23;;;20.50;55.10;;;;;;4977911;28;20050;-74
2022/05/12 13:33:03;;;;;;;2.57;1.30;;;21.10;55.10;;;;;;4992292;28;20370;-74